createdAt,value
2022-11-17T00:00:12.744Z,0
2022-11-17T00:01:30.419Z,0
2022-11-17T00:02:47.591Z,0
2022-11-17T00:04:04.427Z,0
2022-11-17T00:05:21.464Z,1
2022-11-17T00:06:38.399Z,0
2022-11-17T00:07:55.395Z,2
2022-11-17T00:09:12.411Z,2
2022-11-17T00:10:29.548Z,2
2022-11-17T00:11:47.427Z,2
2022-11-17T00:13:04.400Z,3
2022-11-17T00:14:21.401Z,4
2022-11-17T00:15:38.390Z,4
2022-11-17T00:16:55.425Z,3
2022-11-17T00:18:12.559Z,3
2022-11-17T00:19:29.414Z,2
2022-11-17T00:20:46.434Z,0
2022-11-17T00:22:03.416Z,0
2022-11-17T00:23:20.419Z,0
2022-11-17T00:24:37.601Z,0
2022-11-17T00:25:55.908Z,0
2022-11-17T00:27:13.427Z,0
2022-11-17T00:28:30.436Z,0
2022-11-17T00:29:47.461Z,0
2022-11-17T00:31:04.525Z,0
2022-11-17T00:32:21.456Z,0
2022-11-17T00:33:38.577Z,0
2022-11-17T00:34:55.464Z,0
2022-11-17T00:36:12.505Z,0
2022-11-17T00:37:29.455Z,0
2022-11-17T00:38:46.441Z,0
2022-11-17T00:40:03.512Z,0
2022-11-17T00:41:20.438Z,0
2022-11-17T00:42:37.503Z,0
2022-11-17T00:43:54.467Z,0
2022-11-17T00:45:11.446Z,0
2022-11-17T00:46:28.456Z,0
2022-11-17T00:47:45.546Z,0
2022-11-17T00:49:02.480Z,0
2022-11-17T00:50:19.464Z,0
2022-11-17T00:51:36.476Z,0
2022-11-17T00:52:53.494Z,0
2022-11-17T00:54:10.466Z,1
2022-11-17T00:55:27.523Z,1
2022-11-17T00:56:44.501Z,1
2022-11-17T00:58:01.559Z,0
2022-11-17T00:59:18.489Z,1
2022-11-17T01:00:35.469Z,2
2022-11-17T01:01:52.528Z,2
2022-11-17T01:03:09.483Z,2
2022-11-17T01:04:26.588Z,1
2022-11-17T01:05:43.473Z,1
2022-11-17T01:07:00.913Z,1
2022-11-17T01:08:17.473Z,3
2022-11-17T01:09:34.489Z,3
2022-11-17T01:10:51.476Z,3
2022-11-17T01:12:08.513Z,3
2022-11-17T01:13:25.475Z,3
2022-11-17T01:14:42.652Z,2
2022-11-17T01:15:59.532Z,2
2022-11-17T01:17:16.485Z,3
2022-11-17T01:18:33.564Z,2
2022-11-17T01:19:50.618Z,3
2022-11-17T01:21:07.599Z,4
2022-11-17T01:22:24.507Z,4
2022-11-17T01:23:41.560Z,8
2022-11-17T01:24:58.539Z,10
2022-11-17T01:26:15.550Z,10
2022-11-17T01:27:32.528Z,13
2022-11-17T01:28:50.673Z,13
2022-11-17T01:30:08.550Z,14
2022-11-17T01:31:25.595Z,16
2022-11-17T01:32:42.543Z,16
2022-11-17T01:33:59.514Z,15
2022-11-17T01:35:16.928Z,13
2022-11-17T01:36:34.506Z,13
2022-11-17T01:37:51.529Z,13
2022-11-17T01:39:08.559Z,12
2022-11-17T01:40:25.538Z,10
2022-11-17T01:41:42.556Z,10
2022-11-17T01:42:59.691Z,10
2022-11-17T01:44:17.604Z,10
2022-11-17T01:45:34.523Z,11
2022-11-17T01:46:53.701Z,8
2022-11-17T01:48:08.547Z,8
2022-11-17T01:49:25.564Z,8
2022-11-17T01:50:42.645Z,7
2022-11-17T01:52:00.139Z,7
2022-11-17T01:53:17.469Z,7
2022-11-17T01:54:34.342Z,8
2022-11-17T01:55:52.261Z,8
2022-11-17T01:57:09.354Z,7
2022-11-17T01:58:26.342Z,7
2022-11-17T01:59:43.361Z,7
2022-11-17T02:01:00.393Z,7
2022-11-17T02:02:17.361Z,7
2022-11-17T02:03:34.760Z,7
2022-11-17T02:04:51.349Z,7
2022-11-17T02:06:08.513Z,8
2022-11-17T02:07:25.850Z,8
2022-11-17T02:08:42.897Z,8
2022-11-17T02:09:59.356Z,7
2022-11-17T02:11:16.391Z,6
2022-11-17T02:12:33.391Z,4
2022-11-17T02:13:50.411Z,4
2022-11-17T02:15:07.449Z,6
2022-11-17T02:16:24.404Z,7
2022-11-17T02:17:41.423Z,7
2022-11-17T02:18:59.030Z,8
2022-11-17T02:20:16.403Z,8
2022-11-17T02:21:33.920Z,6
2022-11-17T02:22:50.379Z,6
2022-11-17T02:24:07.464Z,6
2022-11-17T02:25:27.097Z,7
2022-11-17T02:26:41.446Z,4
2022-11-17T02:27:58.425Z,3
2022-11-17T02:29:15.401Z,6
2022-11-17T02:30:32.520Z,7
2022-11-17T02:31:49.483Z,6
2022-11-17T02:33:06.401Z,7
2022-11-17T02:34:23.391Z,9
2022-11-17T02:35:40.434Z,9
2022-11-17T02:36:57.481Z,10
2022-11-17T02:38:14.436Z,15
2022-11-17T02:39:32.247Z,15
2022-11-17T02:40:49.434Z,17
2022-11-17T02:42:06.400Z,16
2022-11-17T02:43:23.429Z,14
2022-11-17T02:44:40.403Z,10
2022-11-17T02:45:58.210Z,12
2022-11-17T02:47:15.508Z,10
2022-11-17T02:48:32.418Z,12
2022-11-17T02:49:49.409Z,10
2022-11-17T02:51:06.414Z,12
2022-11-17T02:52:23.622Z,13
2022-11-17T02:53:40.412Z,13
2022-11-17T02:54:57.419Z,12
2022-11-17T02:56:14.410Z,10
2022-11-17T02:57:31.447Z,10
2022-11-17T02:58:48.441Z,10
2022-11-17T03:00:05.643Z,9
2022-11-17T03:01:22.469Z,9
2022-11-17T03:02:40.002Z,9
2022-11-17T03:03:57.503Z,9
2022-11-17T03:05:14.470Z,9
2022-11-17T03:06:32.342Z,9
2022-11-17T03:07:49.474Z,10
2022-11-17T03:09:06.465Z,10
2022-11-17T03:10:23.440Z,9
2022-11-17T03:11:40.483Z,9
2022-11-17T03:12:58.082Z,10
2022-11-17T03:14:15.311Z,10
2022-11-17T03:15:32.477Z,10
2022-11-17T03:16:49.470Z,8
2022-11-17T03:18:06.460Z,7
2022-11-17T03:19:23.518Z,7
2022-11-17T03:20:40.456Z,8
2022-11-17T03:21:57.450Z,9
2022-11-17T03:23:14.629Z,8
2022-11-17T03:24:31.527Z,8
2022-11-17T03:25:48.463Z,8
2022-11-17T03:27:05.555Z,8
2022-11-17T03:28:22.467Z,7
2022-11-17T03:29:39.588Z,8
2022-11-17T03:30:56.493Z,8
2022-11-17T03:32:13.467Z,7
2022-11-17T03:33:30.481Z,6
2022-11-17T03:34:47.469Z,6
2022-11-17T03:36:04.501Z,6
2022-11-17T03:37:21.505Z,4
2022-11-17T03:38:38.602Z,4
2022-11-17T03:39:55.484Z,4
2022-11-17T03:41:12.512Z,6
2022-11-17T03:42:29.500Z,6
2022-11-17T03:43:46.502Z,6
2022-11-17T03:45:04.320Z,8
2022-11-17T03:46:21.539Z,7
2022-11-17T03:47:38.497Z,6
2022-11-17T03:48:55.483Z,7
2022-11-17T03:50:12.514Z,6
2022-11-17T03:51:29.538Z,4
2022-11-17T03:52:46.497Z,4
2022-11-17T03:54:03.620Z,4
2022-11-17T03:55:20.511Z,3
2022-11-17T03:56:37.561Z,3
2022-11-17T03:57:54.491Z,3
2022-11-17T03:59:11.502Z,4
2022-11-17T04:00:28.502Z,4
2022-11-17T04:01:45.752Z,4
2022-11-17T04:03:02.529Z,3
2022-11-17T04:04:19.501Z,3
2022-11-17T04:05:36.565Z,0
2022-11-17T04:06:53.651Z,0
2022-11-17T04:08:10.542Z,0
2022-11-17T04:09:27.635Z,0
2022-11-17T04:10:44.570Z,0
2022-11-17T04:12:01.541Z,0
2022-11-17T04:13:18.515Z,0
2022-11-17T04:14:35.545Z,0
2022-11-17T04:15:52.575Z,0
2022-11-17T04:17:09.592Z,0
2022-11-17T04:18:26.648Z,0
2022-11-17T04:19:43.524Z,1
2022-11-17T04:21:00.591Z,0
2022-11-17T04:22:17.539Z,0
2022-11-17T04:23:34.791Z,0
2022-11-17T04:24:51.657Z,0
2022-11-17T04:26:08.580Z,0
2022-11-17T04:27:25.625Z,0
2022-11-17T04:28:42.558Z,0
2022-11-17T04:29:59.627Z,0
2022-11-17T04:31:16.582Z,0
2022-11-17T04:32:33.615Z,0
2022-11-17T04:33:50.575Z,0
2022-11-17T04:35:07.552Z,0
2022-11-17T04:36:24.550Z,0
2022-11-17T04:37:41.572Z,0
2022-11-17T04:38:58.549Z,0
2022-11-17T04:40:15.682Z,0
2022-11-17T04:41:32.577Z,0
2022-11-17T04:42:49.585Z,0
2022-11-17T04:44:06.828Z,0
2022-11-17T04:45:23.571Z,0
2022-11-17T04:46:40.640Z,0
2022-11-17T04:47:57.581Z,0
2022-11-17T04:49:15.242Z,1
2022-11-17T04:50:32.587Z,1
2022-11-17T04:51:49.951Z,1
2022-11-17T04:53:06.567Z,2
2022-11-17T04:54:23.610Z,2
2022-11-17T04:55:40.689Z,3
2022-11-17T04:56:57.603Z,3
2022-11-17T04:58:14.576Z,3
2022-11-17T04:59:31.619Z,3
2022-11-17T05:00:48.582Z,2
2022-11-17T05:02:06.411Z,2
2022-11-17T05:03:22.855Z,2
2022-11-17T05:04:39.643Z,2
2022-11-17T05:05:56.610Z,1
2022-11-17T05:07:13.624Z,1
2022-11-17T05:08:30.583Z,2
2022-11-17T05:09:47.629Z,3
2022-11-17T05:11:04.860Z,3
2022-11-17T05:12:21.628Z,3
2022-11-17T05:13:38.687Z,4
2022-11-17T05:14:55.657Z,4
2022-11-17T05:16:12.607Z,6
2022-11-17T05:17:29.702Z,7
2022-11-17T05:18:46.822Z,7
2022-11-17T05:20:03.951Z,7
2022-11-17T05:21:20.618Z,7
2022-11-17T05:22:37.602Z,4
2022-11-17T05:23:54.634Z,4
2022-11-17T05:25:11.681Z,3
2022-11-17T05:26:28.745Z,4
2022-11-17T05:27:45.620Z,6
2022-11-17T05:29:02.727Z,6
2022-11-17T05:30:19.676Z,6
2022-11-17T05:31:36.680Z,3
2022-11-17T05:32:53.627Z,3
2022-11-17T05:34:10.625Z,3
2022-11-17T05:35:27.704Z,3
2022-11-17T05:36:44.658Z,2
2022-11-17T05:38:01.775Z,2
2022-11-17T05:39:18.649Z,1
2022-11-17T05:40:35.668Z,1
2022-11-17T05:41:52.688Z,1
2022-11-17T05:43:09.663Z,1
2022-11-17T05:44:26.707Z,1
2022-11-17T05:45:43.681Z,1
2022-11-17T05:47:00.677Z,0
2022-11-17T05:48:18.299Z,0
2022-11-17T05:49:35.691Z,0
2022-11-17T05:50:52.720Z,0
2022-11-17T05:52:09.687Z,0
2022-11-17T05:53:26.661Z,1
2022-11-17T05:54:43.691Z,1
2022-11-17T05:56:00.685Z,2
2022-11-17T05:57:17.780Z,1
2022-11-17T05:58:35.255Z,0
2022-11-17T05:59:52.714Z,0
2022-11-17T06:01:09.749Z,0
2022-11-17T06:02:26.665Z,0
2022-11-17T06:03:43.720Z,0
2022-11-17T06:05:00.661Z,0
2022-11-17T06:06:17.695Z,0
2022-11-17T06:07:34.775Z,0
2022-11-17T06:08:51.746Z,0
2022-11-17T06:10:08.775Z,0
2022-11-17T06:11:25.678Z,0
2022-11-17T06:12:42.851Z,0
2022-11-17T06:13:59.741Z,0
2022-11-17T06:15:16.683Z,0
2022-11-17T06:16:33.691Z,0
2022-11-17T06:17:50.691Z,0
2022-11-17T06:19:07.719Z,0
2022-11-17T06:20:24.772Z,0
2022-11-17T06:22:04.787Z,0
2022-11-17T06:22:58.695Z,0
2022-11-17T06:24:15.746Z,0
2022-11-17T06:25:32.839Z,0
2022-11-17T06:26:49.695Z,0
2022-11-17T06:28:06.940Z,0
2022-11-17T06:29:23.729Z,0
2022-11-17T06:30:40.776Z,0
2022-11-17T06:31:57.822Z,0
2022-11-17T06:33:14.710Z,1
2022-11-17T06:34:31.720Z,1
2022-11-17T06:35:48.732Z,2
2022-11-17T06:37:05.712Z,2
2022-11-17T06:38:22.714Z,1
2022-11-17T06:39:39.739Z,0
2022-11-17T06:40:56.744Z,0
2022-11-17T06:42:13.807Z,0
2022-11-17T06:43:30.765Z,0
2022-11-17T06:44:47.810Z,0
2022-11-17T06:46:04.773Z,0
2022-11-17T06:47:21.863Z,0
2022-11-17T06:48:38.999Z,0
2022-11-17T06:49:55.788Z,0
2022-11-17T06:51:12.732Z,0
2022-11-17T06:52:29.745Z,0
2022-11-17T06:53:46.838Z,0
2022-11-17T06:55:03.770Z,0
2022-11-17T06:56:20.745Z,0
2022-11-17T06:57:37.785Z,1
2022-11-17T06:58:54.976Z,1
2022-11-17T07:00:11.844Z,1
2022-11-17T07:01:28.789Z,1
2022-11-17T07:02:45.771Z,1
2022-11-17T07:04:02.867Z,0
2022-11-17T07:05:19.776Z,0
2022-11-17T07:06:36.758Z,0
2022-11-17T07:07:53.916Z,0
2022-11-17T07:09:10.786Z,0
2022-11-17T07:10:27.849Z,0
2022-11-17T07:11:44.799Z,0
2022-11-17T07:13:01.778Z,0
2022-11-17T07:14:18.809Z,0
2022-11-17T07:15:35.854Z,0
2022-11-17T07:16:52.768Z,33
2022-11-17T07:18:09.754Z,8
2022-11-17T07:19:26.777Z,1
2022-11-17T07:20:43.810Z,0
2022-11-17T07:22:00.858Z,23
2022-11-17T07:23:17.800Z,33
2022-11-17T07:24:34.802Z,5
2022-11-17T07:25:51.782Z,4
2022-11-17T07:27:08.817Z,3
2022-11-17T07:28:25.826Z,2
2022-11-17T07:29:42.913Z,2
2022-11-17T07:30:59.824Z,0
2022-11-17T07:32:16.813Z,0
2022-11-17T07:33:33.788Z,0
2022-11-17T07:34:50.817Z,0
2022-11-17T07:36:07.796Z,1
2022-11-17T07:37:24.834Z,3
2022-11-17T07:38:41.815Z,3
2022-11-17T07:39:58.840Z,3
2022-11-17T07:41:15.833Z,3
2022-11-17T07:42:32.956Z,3
2022-11-17T07:43:49.804Z,3
2022-11-17T07:45:06.903Z,3
2022-11-17T07:46:23.821Z,3
2022-11-17T07:47:40.814Z,2
2022-11-17T07:48:57.820Z,2
2022-11-17T07:50:14.876Z,1
2022-11-17T07:51:31.847Z,0
2022-11-17T07:52:49.336Z,0
2022-11-17T07:54:05.975Z,0
2022-11-17T07:55:22.868Z,0
2022-11-17T07:56:39.844Z,0
2022-11-17T07:57:56.919Z,0
2022-11-17T07:59:17.220Z,0
2022-11-17T08:00:30.986Z,0
2022-11-17T08:01:47.869Z,0
2022-11-17T08:03:04.867Z,0
2022-11-17T08:04:21.850Z,0
2022-11-17T08:05:43.208Z,0
2022-11-17T08:06:55.866Z,0
2022-11-17T08:08:12.876Z,1
2022-11-17T08:09:29.869Z,0
2022-11-17T08:10:46.877Z,0
2022-11-17T08:12:03.906Z,0
2022-11-17T08:13:20.919Z,0
2022-11-17T08:14:37.910Z,0
2022-11-17T08:15:54.992Z,0
2022-11-17T08:17:11.901Z,0
2022-11-17T08:18:28.865Z,1
2022-11-17T08:19:45.915Z,1
2022-11-17T08:21:03.015Z,2
2022-11-17T08:22:19.855Z,2
2022-11-17T08:23:36.881Z,3
2022-11-17T08:24:53.845Z,4
2022-11-17T08:26:11.177Z,5
2022-11-17T08:27:27.919Z,3
2022-11-17T08:28:44.857Z,3
2022-11-17T08:30:01.890Z,3
2022-11-17T08:31:19.002Z,3
2022-11-17T08:32:35.897Z,2
2022-11-17T08:33:52.911Z,2
2022-11-17T08:35:09.875Z,1
2022-11-17T08:36:26.915Z,2
2022-11-17T08:37:43.894Z,4
2022-11-17T08:39:01.019Z,4
2022-11-17T08:40:17.927Z,3
2022-11-17T08:41:35.062Z,1
2022-11-17T08:42:54.959Z,2
2022-11-17T08:44:08.932Z,2
2022-11-17T08:45:25.901Z,3
2022-11-17T08:46:43.177Z,3
2022-11-17T08:47:59.942Z,3
2022-11-17T08:49:16.905Z,5
2022-11-17T08:50:33.913Z,4
2022-11-17T08:51:50.955Z,8
2022-11-17T08:53:07.912Z,9
2022-11-17T08:54:24.884Z,6
2022-11-17T08:55:42.137Z,8
2022-11-17T08:56:58.975Z,9
2022-11-17T08:58:15.906Z,8
2022-11-17T08:59:32.896Z,9
2022-11-17T09:00:49.955Z,6
2022-11-17T09:02:07.081Z,5
2022-11-17T09:03:23.893Z,6
2022-11-17T09:04:40.898Z,5
2022-11-17T09:05:57.900Z,4
2022-11-17T09:07:15.074Z,4
2022-11-17T09:08:45.335Z,4
2022-11-17T09:09:48.935Z,4
2022-11-17T09:11:05.919Z,9
2022-11-17T09:12:25.769Z,4
2022-11-17T09:13:43.078Z,2
2022-11-17T09:14:59.988Z,3
2022-11-17T09:16:16.988Z,4
2022-11-17T09:17:34.082Z,5
2022-11-17T09:18:50.926Z,5
2022-11-17T09:20:08.086Z,2
2022-11-17T09:21:24.928Z,2
2022-11-17T09:22:42.182Z,5
2022-11-17T09:23:59.429Z,8
2022-11-17T09:25:15.973Z,1
2022-11-17T09:26:32.946Z,0
2022-11-17T09:27:50.117Z,3
2022-11-17T09:29:07.215Z,1
2022-11-17T09:30:24.019Z,1
2022-11-17T09:31:41.094Z,0
2022-11-17T09:32:58.125Z,0
2022-11-17T09:34:15.028Z,3
2022-11-17T09:35:32.067Z,0
2022-11-17T09:36:49.000Z,0
2022-11-17T09:38:06.037Z,0
2022-11-17T09:39:23.100Z,0
2022-11-17T09:40:40.002Z,0
2022-11-17T09:41:56.953Z,0
2022-11-17T09:43:14.023Z,0
2022-11-17T09:44:30.973Z,0
2022-11-17T09:45:48.074Z,0
2022-11-17T09:47:05.014Z,0
2022-11-17T09:49:38.965Z,0
2022-11-17T09:50:55.971Z,0
2022-11-17T09:52:13.016Z,0
2022-11-17T09:53:30.037Z,0
2022-11-17T09:54:46.981Z,2
2022-11-17T09:56:04.027Z,2
2022-11-17T09:57:20.967Z,3
2022-11-17T09:58:38.599Z,3
2022-11-17T09:59:55.024Z,3
2022-11-17T10:01:12.001Z,2
2022-11-17T10:02:29.166Z,1
2022-11-17T10:03:46.738Z,0
2022-11-17T10:05:03.085Z,1
2022-11-17T10:06:20.196Z,3
2022-11-17T10:07:37.136Z,3
2022-11-17T10:08:53.992Z,3
2022-11-17T10:10:11.044Z,2
2022-11-17T10:11:27.993Z,2
2022-11-17T10:12:45.615Z,4
2022-11-17T10:14:02.999Z,3
2022-11-17T10:15:20.257Z,2
2022-11-17T10:16:37.037Z,3
2022-11-17T10:17:54.026Z,3
2022-11-17T10:19:11.033Z,3
2022-11-17T10:20:28.135Z,2
2022-11-17T10:21:45.019Z,2
2022-11-17T10:23:02.138Z,3
2022-11-17T10:24:19.015Z,4
2022-11-17T10:25:36.200Z,3
2022-11-17T10:26:53.008Z,4
2022-11-17T10:28:10.208Z,2
2022-11-17T10:29:27.022Z,3
2022-11-17T10:30:44.084Z,3
2022-11-17T10:32:01.040Z,0
2022-11-17T10:33:18.460Z,0
2022-11-17T10:34:40.480Z,0
2022-11-17T10:35:52.034Z,0
2022-11-17T10:37:09.111Z,0
2022-11-17T10:38:26.052Z,0
2022-11-17T10:39:43.068Z,0
2022-11-17T10:41:00.038Z,0
2022-11-17T10:42:17.202Z,0
2022-11-17T10:43:34.388Z,0
2022-11-17T10:44:51.058Z,0
2022-11-17T10:46:08.079Z,1
2022-11-17T10:47:25.036Z,1
2022-11-17T10:48:42.067Z,1
2022-11-17T10:49:59.064Z,1
2022-11-17T10:51:16.035Z,2
2022-11-17T10:52:33.059Z,1
2022-11-17T10:53:50.396Z,2
2022-11-17T10:55:07.070Z,2
2022-11-17T10:56:24.061Z,0
2022-11-17T10:57:41.051Z,0
2022-11-17T10:58:58.112Z,0
2022-11-17T11:00:15.148Z,1
2022-11-17T11:01:32.320Z,0
2022-11-17T11:02:49.087Z,0
2022-11-17T11:04:06.155Z,0
2022-11-17T11:05:23.102Z,0
2022-11-17T11:06:40.671Z,0
2022-11-17T11:07:58.106Z,1
2022-11-17T11:09:15.145Z,0
2022-11-17T11:10:32.077Z,0
2022-11-17T11:11:49.164Z,0
2022-11-17T11:13:06.077Z,0
2022-11-17T11:14:23.181Z,0
2022-11-17T11:15:40.127Z,0
2022-11-17T11:16:57.083Z,0
2022-11-17T11:18:14.149Z,0
2022-11-17T11:19:31.118Z,0
2022-11-17T11:20:48.105Z,0
2022-11-17T11:22:05.106Z,0
2022-11-17T11:23:22.147Z,0
2022-11-17T11:24:39.157Z,0
2022-11-17T11:25:56.104Z,0
2022-11-17T11:27:13.145Z,0
2022-11-17T11:28:30.229Z,0
2022-11-17T11:29:47.164Z,1
2022-11-17T11:31:04.277Z,1
2022-11-17T11:32:21.151Z,1
2022-11-17T11:33:38.135Z,2
2022-11-17T11:34:55.111Z,0
2022-11-17T11:36:12.172Z,0
2022-11-17T11:37:29.235Z,0
2022-11-17T11:38:46.134Z,0
2022-11-17T11:40:03.183Z,0
2022-11-17T11:41:20.165Z,0
2022-11-17T11:42:37.225Z,3
2022-11-17T11:43:54.104Z,0
2022-11-17T11:45:11.178Z,1
2022-11-17T11:46:28.173Z,3
2022-11-17T11:47:45.150Z,0
2022-11-17T11:49:02.240Z,0
2022-11-17T11:50:19.122Z,0
2022-11-17T11:51:36.223Z,0
2022-11-17T11:52:53.199Z,0
2022-11-17T11:54:10.450Z,0
2022-11-17T11:55:27.352Z,0
2022-11-17T11:56:44.154Z,0
2022-11-17T11:58:01.180Z,0
2022-11-17T11:59:18.122Z,0
2022-11-17T12:00:35.206Z,0
2022-11-17T12:01:52.219Z,0
2022-11-17T12:03:09.211Z,0
2022-11-17T12:04:26.133Z,0
2022-11-17T12:05:44.000Z,0
2022-11-17T12:07:01.189Z,0
2022-11-17T12:08:18.203Z,2
2022-11-17T12:09:35.164Z,5
2022-11-17T12:10:52.230Z,6
2022-11-17T12:12:09.221Z,4
2022-11-17T12:13:26.316Z,2
2022-11-17T12:14:43.180Z,1
2022-11-17T12:16:00.368Z,2
2022-11-17T12:17:17.212Z,0
2022-11-17T12:18:34.262Z,0
2022-11-17T12:19:51.171Z,0
2022-11-17T12:21:08.276Z,6
2022-11-17T12:22:25.289Z,2
2022-11-17T12:23:42.316Z,0
2022-11-17T12:24:59.301Z,0
2022-11-17T12:26:16.175Z,0
2022-11-17T12:27:33.185Z,0
2022-11-17T12:28:50.239Z,0
2022-11-17T12:30:07.270Z,0
2022-11-17T12:31:24.176Z,0
2022-11-17T12:32:41.225Z,0
2022-11-17T12:33:58.235Z,0
2022-11-17T12:35:15.223Z,0
2022-11-17T12:36:32.198Z,0
2022-11-17T12:37:49.297Z,0
2022-11-17T12:39:06.229Z,1
2022-11-17T12:40:23.369Z,0
2022-11-17T12:41:40.383Z,2
2022-11-17T12:42:57.346Z,3
2022-11-17T12:44:14.567Z,4
2022-11-17T12:45:31.504Z,4
2022-11-17T12:46:48.224Z,6
2022-11-17T12:48:32.129Z,6
2022-11-17T12:49:22.231Z,5
2022-11-17T12:50:39.254Z,4
2022-11-17T12:51:56.254Z,5
2022-11-17T12:53:13.223Z,5
2022-11-17T12:54:30.264Z,5
2022-11-17T12:55:47.206Z,3
2022-11-17T12:57:04.254Z,3
2022-11-17T12:58:21.731Z,2
2022-11-17T12:59:38.447Z,2
2022-11-17T13:00:55.284Z,1
2022-11-17T13:02:12.199Z,1
2022-11-17T13:03:29.241Z,1
2022-11-17T13:04:49.525Z,1
2022-11-17T13:06:28.075Z,0
2022-11-17T13:07:20.315Z,0
2022-11-17T13:08:37.262Z,0
2022-11-17T13:09:54.219Z,0
2022-11-17T13:11:11.337Z,0
2022-11-17T13:12:28.368Z,0
2022-11-17T13:13:46.999Z,0
2022-11-17T13:15:02.613Z,0
2022-11-17T13:16:19.236Z,0
2022-11-17T13:17:36.256Z,0
2022-11-17T13:18:53.223Z,0
2022-11-17T13:20:10.290Z,0
2022-11-17T13:21:27.279Z,3
2022-11-17T13:22:44.288Z,2
2022-11-17T13:24:01.329Z,1
2022-11-17T13:25:18.480Z,1
2022-11-17T13:26:35.427Z,0
2022-11-17T13:27:56.187Z,0
2022-11-17T13:29:09.265Z,0
2022-11-17T13:30:26.299Z,0
2022-11-17T13:31:43.325Z,1
2022-11-17T13:33:00.259Z,1
2022-11-17T13:34:17.412Z,1
2022-11-17T13:35:34.301Z,2
2022-11-17T13:36:51.252Z,2
2022-11-17T13:38:08.325Z,2
2022-11-17T13:39:27.422Z,2
2022-11-17T13:40:42.276Z,2
2022-11-17T13:41:59.331Z,4
2022-11-17T13:43:16.263Z,3
2022-11-17T13:44:33.456Z,6
2022-11-17T13:45:50.280Z,10
2022-11-17T13:47:07.438Z,10
2022-11-17T13:48:24.417Z,11
2022-11-17T13:49:41.292Z,10
2022-11-17T13:50:58.300Z,5
2022-11-17T13:52:15.489Z,4
2022-11-17T13:53:32.307Z,5
2022-11-17T13:54:49.428Z,10
2022-11-17T13:56:06.279Z,13
2022-11-17T13:57:23.461Z,18
2022-11-17T13:58:40.528Z,20
2022-11-17T13:59:57.314Z,11
2022-11-17T14:01:14.322Z,11
2022-11-17T14:02:31.357Z,13
2022-11-17T14:03:48.344Z,17
2022-11-17T14:05:05.463Z,14
2022-11-17T14:06:22.295Z,16
2022-11-17T14:07:39.363Z,14
2022-11-17T14:08:56.323Z,13
2022-11-17T14:10:13.450Z,18
2022-11-17T14:11:30.294Z,17
2022-11-17T14:12:47.308Z,18
2022-11-17T14:14:04.299Z,23
2022-11-17T14:15:21.397Z,25
2022-11-17T14:16:38.347Z,28
2022-11-17T14:17:55.454Z,36
2022-11-17T14:19:12.365Z,29
2022-11-17T14:20:29.328Z,21
2022-11-17T14:21:46.325Z,23
2022-11-17T14:23:03.657Z,60
2022-11-17T14:24:20.414Z,60
2022-11-17T14:25:37.794Z,43
2022-11-17T14:26:54.316Z,27
2022-11-17T14:28:11.350Z,24
2022-11-17T14:29:28.361Z,40
2022-11-17T14:30:45.434Z,27
2022-11-17T14:32:02.366Z,23
2022-11-17T14:33:19.345Z,35
2022-11-17T14:34:36.320Z,31
2022-11-17T14:35:53.448Z,19
2022-11-17T14:37:10.467Z,18
2022-11-17T14:38:27.338Z,26
2022-11-17T14:39:44.346Z,31
2022-11-17T14:41:01.450Z,28
2022-11-17T14:42:18.381Z,28
2022-11-17T14:43:35.399Z,25
2022-11-17T14:44:52.385Z,25
2022-11-17T14:46:09.407Z,25
2022-11-17T14:47:26.381Z,19
2022-11-17T14:48:44.107Z,14
2022-11-17T14:50:01.694Z,18
2022-11-17T14:51:18.388Z,20
2022-11-17T14:52:35.466Z,13
2022-11-17T14:53:52.471Z,14
2022-11-17T14:55:09.382Z,13
2022-11-17T14:56:28.684Z,14
2022-11-17T14:57:46.388Z,12
2022-11-17T14:59:05.459Z,12
2022-11-17T15:00:25.643Z,12
2022-11-17T15:01:43.399Z,12
2022-11-17T15:03:00.381Z,17
2022-11-17T15:05:34.396Z,16
2022-11-17T15:06:51.467Z,14
2022-11-17T15:08:08.421Z,16
2022-11-17T15:09:25.458Z,16
2022-11-17T15:10:42.417Z,17
2022-11-17T15:11:59.422Z,16
2022-11-17T15:13:16.584Z,16
2022-11-17T15:14:33.452Z,16
2022-11-17T15:15:50.416Z,16
2022-11-17T15:17:09.886Z,13
2022-11-17T15:18:24.406Z,12
2022-11-17T15:19:41.480Z,11
2022-11-17T15:20:58.425Z,10
2022-11-17T15:22:15.388Z,10
2022-11-17T15:23:32.422Z,10
2022-11-17T15:24:49.421Z,11
2022-11-17T15:26:06.432Z,12
2022-11-17T15:27:23.447Z,12
2022-11-17T15:28:40.478Z,10
2022-11-17T15:29:57.493Z,11
2022-11-17T15:31:14.447Z,14
2022-11-17T15:32:31.517Z,16
2022-11-17T15:33:48.658Z,10
2022-11-17T15:35:05.528Z,9
2022-11-17T15:36:22.459Z,18
2022-11-17T15:37:39.472Z,13
2022-11-17T15:38:56.559Z,9
2022-11-17T15:40:18.068Z,8
2022-11-17T15:41:32.920Z,19
2022-11-17T15:42:47.479Z,19
2022-11-17T15:44:04.463Z,21
2022-11-17T15:45:21.458Z,12
2022-11-17T15:46:41.682Z,8
2022-11-17T15:47:55.415Z,10
2022-11-17T15:49:12.449Z,10
2022-11-17T15:50:29.462Z,11
2022-11-17T15:51:46.435Z,18
2022-11-17T15:53:04.881Z,14
2022-11-17T15:54:21.188Z,10
2022-11-17T15:55:37.458Z,10
2022-11-17T15:56:54.473Z,10
2022-11-17T15:58:11.473Z,9
2022-11-17T15:59:28.470Z,13
2022-11-17T16:00:45.476Z,9
2022-11-17T16:02:02.567Z,8
2022-11-17T16:03:19.595Z,10
2022-11-17T16:04:36.490Z,9
2022-11-17T16:05:53.763Z,8
2022-11-17T16:07:10.681Z,11
2022-11-17T16:08:27.485Z,11
2022-11-17T16:09:47.426Z,12
2022-11-17T16:11:01.474Z,11
2022-11-17T16:12:18.515Z,18
2022-11-17T16:13:35.574Z,12
2022-11-17T16:14:52.513Z,13
2022-11-17T16:16:09.474Z,13
2022-11-17T16:17:26.526Z,12
2022-11-17T16:18:43.461Z,16
2022-11-17T16:20:00.726Z,11
2022-11-17T16:21:17.497Z,16
2022-11-17T16:22:34.466Z,21
2022-11-17T16:23:51.462Z,19
2022-11-17T16:25:08.557Z,21
2022-11-17T16:26:25.477Z,12
2022-11-17T16:27:42.882Z,13
2022-11-17T16:28:59.521Z,11
2022-11-17T16:30:17.063Z,10
2022-11-17T16:31:34.514Z,10
2022-11-17T16:32:51.775Z,10
2022-11-17T16:34:09.006Z,10
2022-11-17T16:35:26.660Z,16
2022-11-17T16:36:44.171Z,10
2022-11-17T16:38:01.734Z,9
2022-11-17T16:39:18.799Z,8
2022-11-17T16:40:35.525Z,6
2022-11-17T16:41:52.584Z,9
2022-11-17T16:43:09.489Z,9
2022-11-17T16:44:26.852Z,9
2022-11-17T16:45:43.537Z,8
2022-11-17T16:47:00.577Z,8
2022-11-17T16:48:17.544Z,8
2022-11-17T16:49:34.567Z,14
2022-11-17T16:50:51.505Z,11
2022-11-17T16:52:08.595Z,9
2022-11-17T16:53:25.583Z,9
2022-11-17T16:54:42.699Z,9
2022-11-17T16:55:59.512Z,9
2022-11-17T16:57:16.538Z,8
2022-11-17T16:58:33.515Z,9
2022-11-17T16:59:50.821Z,8
2022-11-17T17:01:12.087Z,8
2022-11-17T17:02:24.625Z,8
2022-11-17T17:03:41.530Z,11
2022-11-17T17:04:58.624Z,12
2022-11-17T17:06:15.571Z,12
2022-11-17T17:07:32.655Z,12
2022-11-17T17:08:49.729Z,12
2022-11-17T17:10:06.669Z,10
2022-11-17T17:11:23.583Z,10
2022-11-17T17:12:40.719Z,13
2022-11-17T17:13:57.667Z,12
2022-11-17T17:15:14.572Z,42
2022-11-17T17:16:31.580Z,27
2022-11-17T17:17:48.570Z,34
2022-11-17T17:19:05.540Z,32
2022-11-17T17:20:22.629Z,33
2022-11-17T17:21:39.586Z,18
2022-11-17T17:23:00.297Z,13
2022-11-17T17:24:13.576Z,11
2022-11-17T17:25:30.561Z,8
2022-11-17T17:26:47.621Z,9
2022-11-17T17:28:04.580Z,9
2022-11-17T17:29:21.535Z,9
2022-11-17T17:30:38.583Z,8
2022-11-17T17:31:55.672Z,12
2022-11-17T17:33:12.581Z,11
2022-11-17T17:34:29.556Z,10
2022-11-17T17:35:46.567Z,13
2022-11-17T17:37:03.600Z,11
2022-11-17T17:38:20.557Z,14
2022-11-17T17:39:37.575Z,18
2022-11-17T17:40:54.569Z,11
2022-11-17T17:42:11.598Z,9
2022-11-17T17:43:28.641Z,10
2022-11-17T17:44:45.580Z,10
2022-11-17T17:46:02.704Z,10
2022-11-17T17:47:19.587Z,11
2022-11-17T17:48:36.834Z,10
2022-11-17T17:49:53.631Z,9
2022-11-17T17:51:10.582Z,10
2022-11-17T17:52:27.570Z,9
2022-11-17T17:53:44.772Z,10
2022-11-17T17:55:01.859Z,9
2022-11-17T17:56:18.574Z,11
2022-11-17T17:57:35.577Z,14
2022-11-17T17:58:52.632Z,10
2022-11-17T18:00:09.844Z,19
2022-11-17T18:01:27.249Z,10
2022-11-17T18:02:43.671Z,6
2022-11-17T18:04:00.625Z,6
2022-11-17T18:05:17.746Z,8
2022-11-17T18:06:34.635Z,10
2022-11-17T18:07:51.658Z,12
2022-11-17T18:09:08.650Z,10
2022-11-17T18:10:25.616Z,9
2022-11-17T18:11:42.652Z,10
2022-11-17T18:12:59.692Z,12
2022-11-17T18:14:16.611Z,11
2022-11-17T18:15:33.616Z,11
2022-11-17T18:16:50.663Z,10
2022-11-17T18:18:07.677Z,10
2022-11-17T18:19:28.409Z,12
2022-11-17T18:20:41.711Z,15
2022-11-17T18:21:58.783Z,13
2022-11-17T18:23:15.804Z,18
2022-11-17T18:24:32.705Z,14
2022-11-17T18:25:49.789Z,13
2022-11-17T18:27:06.813Z,16
2022-11-17T18:28:23.621Z,12
2022-11-17T18:29:41.103Z,17
2022-11-17T18:30:57.756Z,11
2022-11-17T18:32:14.703Z,9
2022-11-17T18:33:31.689Z,8
2022-11-17T18:34:48.701Z,8
2022-11-17T18:36:05.783Z,42
2022-11-17T18:37:22.676Z,14
2022-11-17T18:38:39.876Z,14
2022-11-17T18:39:56.704Z,14
2022-11-17T18:41:13.639Z,20
2022-11-17T18:42:30.814Z,20
2022-11-17T18:43:47.716Z,20
2022-11-17T18:45:04.709Z,75
2022-11-17T18:46:21.837Z,43
2022-11-17T18:47:38.681Z,52
2022-11-17T18:48:55.740Z,28
2022-11-17T18:50:12.970Z,19